createdAt,value
2017-10-21T00:00:09.126Z,1003.8
2017-10-21T00:00:49.668Z,1003.73
2017-10-21T00:01:30.254Z,1003.72
2017-10-21T00:02:10.790Z,1003.74
2017-10-21T00:02:51.352Z,1003.71
2017-10-21T00:03:31.836Z,1003.68
2017-10-21T00:04:12.374Z,1003.73
2017-10-21T00:04:52.942Z,1003.69
2017-10-21T00:05:33.489Z,1003.72
2017-10-21T00:06:14.047Z,1003.78
2017-10-21T00:06:54.639Z,1003.68
2017-10-21T00:07:35.150Z,1003.77
2017-10-21T00:08:15.680Z,1003.75
2017-10-21T00:08:56.220Z,1003.8
2017-10-21T00:09:36.740Z,1003.76
2017-10-21T00:10:17.366Z,1003.75
2017-10-21T00:10:57.878Z,1003.78
2017-10-21T00:11:38.406Z,1003.76
2017-10-21T00:12:18.881Z,1003.79
2017-10-21T00:12:59.448Z,1003.74
2017-10-21T00:13:40.043Z,1003.81
2017-10-21T00:14:20.570Z,1003.76
2017-10-21T00:15:01.126Z,1003.77
2017-10-21T00:15:41.690Z,1003.73
2017-10-21T00:16:22.194Z,1003.74
2017-10-21T00:17:02.778Z,1003.68
2017-10-21T00:17:43.268Z,1003.72
2017-10-21T00:18:23.786Z,1003.72
2017-10-21T00:19:04.345Z,1003.69
2017-10-21T00:19:44.875Z,1003.69
2017-10-21T00:20:25.424Z,1003.75
2017-10-21T00:21:06.741Z,1003.8
2017-10-21T00:21:47.262Z,1003.79
2017-10-21T00:22:27.811Z,1003.75
2017-10-21T00:23:08.335Z,1003.79
2017-10-21T00:23:48.863Z,1003.77
2017-10-21T00:24:29.446Z,1003.78
2017-10-21T00:25:09.954Z,1003.72
2017-10-21T00:25:50.546Z,1003.76
2017-10-21T00:26:31.047Z,1003.71
2017-10-21T00:27:11.626Z,1003.7
2017-10-21T00:27:52.152Z,1003.72
2017-10-21T00:28:32.660Z,1003.67
2017-10-21T00:29:13.202Z,1003.72
2017-10-21T00:29:53.732Z,1003.67
2017-10-21T00:30:34.265Z,1003.71
2017-10-21T00:31:14.792Z,1003.71
2017-10-21T00:31:55.388Z,1003.71
2017-10-21T00:32:35.898Z,1003.72
2017-10-21T00:33:16.433Z,1003.71
2017-10-21T00:33:56.955Z,1003.69
2017-10-21T00:34:37.468Z,1003.74
2017-10-21T00:35:18.041Z,1003.74
2017-10-21T00:35:58.608Z,1003.76
2017-10-21T00:36:39.175Z,1003.72
2017-10-21T00:37:19.681Z,1003.82
2017-10-21T00:38:00.245Z,1003.78
2017-10-21T00:38:40.767Z,1003.77
2017-10-21T00:39:21.288Z,1003.77
2017-10-21T00:40:01.843Z,1003.77
2017-10-21T00:40:42.367Z,1003.78
2017-10-21T00:41:22.967Z,1003.77
2017-10-21T00:42:03.498Z,1003.75
2017-10-21T00:42:44.018Z,1003.77
2017-10-21T00:43:24.735Z,1003.74
2017-10-21T00:44:05.243Z,1003.76
2017-10-21T00:44:45.791Z,1003.76
2017-10-21T00:45:26.362Z,1003.79
2017-10-21T00:46:06.899Z,1003.73
2017-10-21T00:46:47.393Z,1003.77
2017-10-21T00:47:27.968Z,1003.79
2017-10-21T00:48:08.525Z,1003.77
2017-10-21T00:48:49.053Z,1003.77
2017-10-21T00:49:29.585Z,1003.72
2017-10-21T00:50:10.171Z,1003.76
2017-10-21T00:50:50.735Z,1003.75
2017-10-21T00:51:31.288Z,1003.7
2017-10-21T00:52:11.832Z,1003.76
2017-10-21T00:52:52.369Z,1003.73
2017-10-21T00:53:32.922Z,1003.76
2017-10-21T00:54:13.505Z,1003.72
2017-10-21T00:54:54.039Z,1003.73
2017-10-21T00:55:34.566Z,1003.75
2017-10-21T00:56:15.076Z,1003.72
2017-10-21T00:56:55.602Z,1003.76
2017-10-21T00:57:36.119Z,1003.76
2017-10-21T00:58:16.654Z,1003.76
2017-10-21T00:58:57.573Z,1003.75
2017-10-21T00:59:38.086Z,1003.75
2017-10-21T01:00:18.696Z,1003.74
2017-10-21T01:00:59.221Z,1003.73
2017-10-21T01:01:39.798Z,1003.72
2017-10-21T01:02:20.284Z,1003.74
2017-10-21T01:03:00.881Z,1003.72
2017-10-21T01:03:41.395Z,1003.79
2017-10-21T01:04:21.978Z,1003.75
2017-10-21T01:05:02.548Z,1003.72
2017-10-21T01:05:43.098Z,1003.72
2017-10-21T01:06:23.640Z,1003.68
2017-10-21T01:07:04.191Z,1003.67
2017-10-21T01:07:44.707Z,1003.68
2017-10-21T01:08:25.274Z,1003.7
2017-10-21T01:09:05.803Z,1003.71
2017-10-21T01:09:46.360Z,1003.71
2017-10-21T01:10:26.849Z,1003.62
2017-10-21T01:11:07.472Z,1003.62
2017-10-21T01:11:47.945Z,1003.63
2017-10-21T01:12:28.648Z,1003.61
2017-10-21T01:13:09.184Z,1003.62
2017-10-21T01:13:49.713Z,1003.62
2017-10-21T01:14:30.253Z,1003.6
2017-10-21T01:15:10.742Z,1003.6
2017-10-21T01:15:51.309Z,1003.62
2017-10-21T01:16:31.778Z,1003.63
2017-10-21T01:17:12.339Z,1003.67
2017-10-21T01:17:52.873Z,1003.67
2017-10-21T01:18:33.394Z,1003.68
2017-10-21T01:19:13.896Z,1003.62
2017-10-21T01:19:54.564Z,1003.64
2017-10-21T01:20:35.066Z,1003.62
2017-10-21T01:21:15.598Z,1003.62
2017-10-21T01:21:56.122Z,1003.62
2017-10-21T01:22:36.692Z,1003.63
2017-10-21T01:23:17.253Z,1003.6
2017-10-21T01:23:57.793Z,1003.66
2017-10-21T01:24:38.310Z,1003.62
2017-10-21T01:25:18.878Z,1003.56
2017-10-21T01:25:59.358Z,1003.63
2017-10-21T01:26:39.893Z,1003.64
2017-10-21T01:27:20.413Z,1003.67
2017-10-21T01:28:00.958Z,1003.69
2017-10-21T01:28:41.492Z,1003.66
2017-10-21T01:29:22.144Z,1003.65
2017-10-21T01:30:02.672Z,1003.6
2017-10-21T01:30:43.258Z,1003.56
2017-10-21T01:31:23.807Z,1003.55
2017-10-21T01:32:04.291Z,1003.56
2017-10-21T01:32:44.851Z,1003.59
2017-10-21T01:33:25.389Z,1003.6
2017-10-21T01:34:05.921Z,1003.63
2017-10-21T01:34:46.483Z,1003.62
2017-10-21T01:35:27.067Z,1003.69
2017-10-21T01:36:07.670Z,1003.67
2017-10-21T01:36:48.166Z,1003.72
2017-10-21T01:37:28.682Z,1003.69
2017-10-21T01:38:09.225Z,1003.68
2017-10-21T01:38:49.728Z,1003.72
2017-10-21T01:39:30.301Z,1003.69
2017-10-21T01:40:10.906Z,1003.71
2017-10-21T01:40:51.380Z,1003.71
2017-10-21T01:41:31.901Z,1003.67
2017-10-21T01:42:12.444Z,1003.69
2017-10-21T01:42:53.030Z,1003.65
2017-10-21T01:43:33.579Z,1003.71
2017-10-21T01:44:14.116Z,1003.71
2017-10-21T01:44:54.676Z,1003.71
2017-10-21T01:45:35.229Z,1003.7
2017-10-21T01:46:15.735Z,1003.66
2017-10-21T01:46:56.243Z,1003.66
2017-10-21T01:47:36.780Z,1003.68
2017-10-21T01:48:17.340Z,1003.63
2017-10-21T01:48:57.870Z,1003.63
2017-10-21T01:49:38.415Z,1003.63
2017-10-21T01:50:18.962Z,1003.63
2017-10-21T01:50:59.503Z,1003.64
2017-10-21T01:51:40.060Z,1003.62
2017-10-21T01:52:20.545Z,1003.65
2017-10-21T01:53:01.176Z,1003.66
2017-10-21T01:53:41.682Z,1003.58
2017-10-21T01:54:22.224Z,1003.62
2017-10-21T01:55:02.755Z,1003.6
2017-10-21T01:55:43.310Z,1003.55
2017-10-21T01:56:23.863Z,1003.59
2017-10-21T01:57:04.416Z,1003.63
2017-10-21T01:57:44.914Z,1003.6
2017-10-21T01:58:25.468Z,1003.6
2017-10-21T01:59:05.982Z,1003.64
2017-10-21T01:59:46.487Z,1003.62
2017-10-21T02:00:27.171Z,1003.63
2017-10-21T02:01:07.558Z,1003.64
2017-10-21T02:01:48.108Z,1003.68
2017-10-21T02:02:28.724Z,1003.63
2017-10-21T02:03:09.241Z,1003.59
2017-10-21T02:03:49.749Z,1003.65
2017-10-21T02:04:30.321Z,1003.67
2017-10-21T02:05:10.814Z,1003.65
2017-10-21T02:05:51.442Z,1003.64
2017-10-21T02:06:31.880Z,1003.63
2017-10-21T02:07:12.427Z,1003.6
2017-10-21T02:07:52.988Z,1003.6
2017-10-21T02:08:33.490Z,1003.62
2017-10-21T02:09:14.042Z,1003.67
2017-10-21T02:09:54.616Z,1003.68
2017-10-21T02:10:35.125Z,1003.69
2017-10-21T02:11:15.684Z,1003.7
2017-10-21T02:11:56.202Z,1003.65
2017-10-21T02:12:36.754Z,1003.67
2017-10-21T02:13:17.312Z,1003.7
2017-10-21T02:13:57.857Z,1003.71
2017-10-21T02:14:38.403Z,1003.71
2017-10-21T02:15:19.314Z,1003.66
2017-10-21T02:15:59.913Z,1003.65
2017-10-21T02:16:40.398Z,1003.63
2017-10-21T02:17:20.945Z,1003.65
2017-10-21T02:18:01.544Z,1003.62
2017-10-21T02:18:42.105Z,1003.58
2017-10-21T02:19:22.586Z,1003.58
2017-10-21T02:20:03.152Z,1003.55
2017-10-21T02:20:43.700Z,1003.52
2017-10-21T02:21:24.186Z,1003.51
2017-10-21T02:22:04.730Z,1003.48
2017-10-21T02:22:45.305Z,1003.47
2017-10-21T02:23:25.825Z,1003.41
2017-10-21T02:24:06.434Z,1003.48
2017-10-21T02:24:46.926Z,1003.45
2017-10-21T02:25:27.568Z,1003.46
2017-10-21T02:26:08.071Z,1003.49
2017-10-21T02:26:48.613Z,1003.51
2017-10-21T02:27:29.127Z,1003.51
2017-10-21T02:28:09.730Z,1003.52
2017-10-21T02:28:50.261Z,1003.54
2017-10-21T02:29:30.757Z,1003.58
2017-10-21T02:30:11.326Z,1003.62
2017-10-21T02:30:51.812Z,1003.61
2017-10-21T02:31:32.368Z,1003.57
2017-10-21T02:32:12.867Z,1003.57
2017-10-21T02:32:53.441Z,1003.59
2017-10-21T02:33:33.971Z,1003.6
2017-10-21T02:34:14.553Z,1003.58
2017-10-21T02:34:55.099Z,1003.55
2017-10-21T02:35:35.667Z,1003.49
2017-10-21T02:36:16.183Z,1003.53
2017-10-21T02:36:56.730Z,1003.52
2017-10-21T02:37:37.236Z,1003.5
2017-10-21T02:38:17.802Z,1003.56
2017-10-21T02:38:58.356Z,1003.5
2017-10-21T02:39:38.994Z,1003.55
2017-10-21T02:40:19.523Z,1003.58
2017-10-21T02:41:00.057Z,1003.52
2017-10-21T02:41:40.600Z,1003.48
2017-10-21T02:42:21.158Z,1003.53
2017-10-21T02:43:01.640Z,1003.51
2017-10-21T02:43:42.256Z,1003.46
2017-10-21T02:44:22.785Z,1003.48
2017-10-21T02:45:03.303Z,1003.48
2017-10-21T02:45:43.840Z,1003.44
2017-10-21T02:46:24.563Z,1003.47
2017-10-21T02:47:04.970Z,1003.45
2017-10-21T02:47:45.514Z,1003.48
2017-10-21T02:48:26.073Z,1003.45
2017-10-21T02:49:06.614Z,1003.45
2017-10-21T02:49:47.156Z,1003.49
2017-10-21T02:50:27.691Z,1003.46
2017-10-21T02:51:08.204Z,1003.42
2017-10-21T02:51:48.712Z,1003.43
2017-10-21T02:52:29.288Z,1003.42
2017-10-21T02:53:09.781Z,1003.37
2017-10-21T02:53:50.328Z,1003.36
2017-10-21T02:54:30.864Z,1003.37
2017-10-21T02:55:11.389Z,1003.41
2017-10-21T02:55:51.906Z,1003.38
2017-10-21T02:56:32.456Z,1003.39
2017-10-21T02:57:13.006Z,1003.38
2017-10-21T02:57:53.534Z,1003.38
2017-10-21T02:58:34.037Z,1003.38
2017-10-21T02:59:14.645Z,1003.36
2017-10-21T02:59:55.181Z,1003.36
2017-10-21T03:00:35.663Z,1003.38
2017-10-21T03:01:16.691Z,1003.36
2017-10-21T03:01:56.828Z,1003.37
2017-10-21T03:02:37.318Z,1003.38
2017-10-21T03:03:17.869Z,1003.4
2017-10-21T03:03:58.399Z,1003.4
2017-10-21T03:04:38.899Z,1003.43
2017-10-21T03:05:19.428Z,1003.41
2017-10-21T03:05:59.987Z,1003.39
2017-10-21T03:06:40.531Z,1003.43
2017-10-21T03:07:21.054Z,1003.37
2017-10-21T03:08:01.618Z,1003.38
2017-10-21T03:08:42.077Z,1003.36
2017-10-21T03:09:22.640Z,1003.38
2017-10-21T03:10:03.242Z,1003.39
2017-10-21T03:10:43.742Z,1003.38
2017-10-21T03:11:24.265Z,1003.36
2017-10-21T03:12:04.845Z,1003.38
2017-10-21T03:12:45.362Z,1003.35
2017-10-21T03:13:25.890Z,1003.34
2017-10-21T03:14:06.441Z,1003.39
2017-10-21T03:14:46.967Z,1003.34
2017-10-21T03:15:27.481Z,1003.39
2017-10-21T03:16:07.977Z,1003.38
2017-10-21T03:16:48.525Z,1003.39
2017-10-21T03:17:29.062Z,1003.39
2017-10-21T03:18:09.578Z,1003.4
2017-10-21T03:18:50.149Z,1003.44
2017-10-21T03:19:30.736Z,1003.42
2017-10-21T03:20:11.269Z,1003.46
2017-10-21T03:20:51.843Z,1003.46
2017-10-21T03:21:32.366Z,1003.43
2017-10-21T03:22:12.901Z,1003.43
2017-10-21T03:22:53.453Z,1003.36
2017-10-21T03:23:33.981Z,1003.4
2017-10-21T03:24:14.495Z,1003.38
2017-10-21T03:24:55.017Z,1003.42
2017-10-21T03:25:35.533Z,1003.38
2017-10-21T03:26:16.050Z,1003.36
2017-10-21T03:26:56.575Z,1003.38
2017-10-21T03:27:37.098Z,1003.37
2017-10-21T03:28:17.666Z,1003.33
2017-10-21T03:28:58.141Z,1003.33
2017-10-21T03:29:38.702Z,1003.36
2017-10-21T03:30:19.280Z,1003.37
2017-10-21T03:30:59.800Z,1003.29
2017-10-21T03:31:40.326Z,1003.36
2017-10-21T03:32:20.879Z,1003.36
2017-10-21T03:33:01.409Z,1003.35
2017-10-21T03:33:41.917Z,1003.32
2017-10-21T03:34:22.452Z,1003.31
2017-10-21T03:35:03.018Z,1003.36
2017-10-21T03:35:43.568Z,1003.38
2017-10-21T03:36:24.117Z,1003.39
2017-10-21T03:37:04.644Z,1003.37
2017-10-21T03:37:45.128Z,1003.34
2017-10-21T03:38:25.665Z,1003.37
2017-10-21T03:39:06.171Z,1003.28
2017-10-21T03:39:46.730Z,1003.3
2017-10-21T03:40:27.251Z,1003.34
2017-10-21T03:41:07.758Z,1003.34
2017-10-21T03:41:48.318Z,1003.31
2017-10-21T03:42:28.836Z,1003.28
2017-10-21T03:43:09.392Z,1003.33
2017-10-21T03:43:49.957Z,1003.32
2017-10-21T03:44:30.507Z,1003.33
2017-10-21T03:45:11.055Z,1003.31
2017-10-21T03:45:51.642Z,1003.3
2017-10-21T03:46:32.201Z,1003.32
2017-10-21T03:47:12.700Z,1003.31
2017-10-21T03:47:53.226Z,1003.28
2017-10-21T03:48:33.789Z,1003.3
2017-10-21T03:49:14.352Z,1003.26
2017-10-21T03:49:54.891Z,1003.3
2017-10-21T03:50:35.434Z,1003.29
2017-10-21T03:51:15.943Z,1003.28
2017-10-21T03:51:56.526Z,1003.26
2017-10-21T03:52:37.029Z,1003.3
2017-10-21T03:53:17.561Z,1003.29
2017-10-21T03:53:58.126Z,1003.3
2017-10-21T03:54:38.681Z,1003.29
2017-10-21T03:55:19.234Z,1003.31
2017-10-21T03:55:59.780Z,1003.33
2017-10-21T03:56:40.279Z,1003.29
2017-10-21T03:57:20.804Z,1003.3
2017-10-21T03:58:01.331Z,1003.32
2017-10-21T03:58:41.850Z,1003.27
2017-10-21T03:59:22.406Z,1003.27
2017-10-21T04:00:02.965Z,1003.31
2017-10-21T04:00:43.501Z,1003.3
2017-10-21T04:01:24.040Z,1003.28
2017-10-21T04:02:04.604Z,1003.31
2017-10-21T04:02:45.130Z,1003.28
2017-10-21T04:03:25.638Z,1003.26
2017-10-21T04:04:06.191Z,1003.28
2017-10-21T04:04:46.718Z,1003.27
2017-10-21T04:05:27.241Z,1003.25
2017-10-21T04:06:07.821Z,1003.27
2017-10-21T04:06:48.370Z,1003.24
2017-10-21T04:07:28.881Z,1003.25
2017-10-21T04:08:09.409Z,1003.27
2017-10-21T04:08:49.965Z,1003.28
2017-10-21T04:09:30.511Z,1003.22
2017-10-21T04:10:11.010Z,1003.27
2017-10-21T04:10:51.571Z,1003.26
2017-10-21T04:11:32.086Z,1003.25
2017-10-21T04:12:12.600Z,1003.25
2017-10-21T04:12:53.135Z,1003.21
2017-10-21T04:13:33.817Z,1003.19
2017-10-21T04:14:14.585Z,1003.18
2017-10-21T04:14:55.062Z,1003.18
2017-10-21T04:15:35.605Z,1003.19
2017-10-21T04:16:16.071Z,1003.18
2017-10-21T04:16:56.615Z,1003.18
2017-10-21T04:17:37.141Z,1003.22
2017-10-21T04:18:17.734Z,1003.23
2017-10-21T04:18:58.224Z,1003.25
2017-10-21T04:19:38.781Z,1003.2
2017-10-21T04:20:19.283Z,1003.2
2017-10-21T04:20:59.866Z,1003.23
2017-10-21T04:21:40.376Z,1003.2
2017-10-21T04:22:20.868Z,1003.23
2017-10-21T04:23:01.412Z,1003.24
2017-10-21T04:23:41.948Z,1003.22
2017-10-21T04:24:22.509Z,1003.15
2017-10-21T04:25:03.019Z,1003.17
2017-10-21T04:25:43.552Z,1003.15
2017-10-21T04:26:24.058Z,1003.14
2017-10-21T04:27:04.612Z,1003.15
2017-10-21T04:27:45.142Z,1003.16
2017-10-21T04:28:25.684Z,1003.12
2017-10-21T04:29:06.196Z,1003.2
2017-10-21T04:29:46.730Z,1003.15
2017-10-21T04:30:27.275Z,1003.15
2017-10-21T04:31:07.791Z,1003.21
2017-10-21T04:31:48.349Z,1003.16
2017-10-21T04:32:28.879Z,1003.14
2017-10-21T04:33:09.379Z,1003.1
2017-10-21T04:33:49.969Z,1003.11
2017-10-21T04:34:30.491Z,1003.1
2017-10-21T04:35:11.010Z,1003.14
2017-10-21T04:35:51.559Z,1003.14
2017-10-21T04:36:32.062Z,1003.14
2017-10-21T04:37:12.625Z,1003.12
2017-10-21T04:37:53.169Z,1003.08
2017-10-21T04:38:33.738Z,1003.12
2017-10-21T04:39:14.243Z,1003.15
2017-10-21T04:39:54.781Z,1003.11
2017-10-21T04:40:35.326Z,1003.13
2017-10-21T04:41:15.913Z,1003.17
2017-10-21T04:41:56.367Z,1003.16
2017-10-21T04:42:36.921Z,1003.17
2017-10-21T04:43:17.449Z,1003.17
2017-10-21T04:43:57.988Z,1003.15
2017-10-21T04:44:38.518Z,1003.15
2017-10-21T04:45:19.041Z,1003.19
2017-10-21T04:45:59.597Z,1003.2
2017-10-21T04:46:40.184Z,1003.16
2017-10-21T04:47:20.734Z,1003.19
2017-10-21T04:48:01.263Z,1003.21
2017-10-21T04:48:41.760Z,1003.23
2017-10-21T04:49:22.289Z,1003.2
2017-10-21T04:50:02.822Z,1003.27
2017-10-21T04:50:43.368Z,1003.25
2017-10-21T04:51:23.894Z,1003.3
2017-10-21T04:52:04.457Z,1003.3
2017-10-21T04:52:44.942Z,1003.3
2017-10-21T04:53:25.521Z,1003.22
2017-10-21T04:54:06.035Z,1003.26
2017-10-21T04:54:46.584Z,1003.25
2017-10-21T04:55:27.105Z,1003.29
2017-10-21T04:56:07.666Z,1003.21
2017-10-21T04:56:48.207Z,1003.21
2017-10-21T04:57:28.777Z,1003.24
2017-10-21T04:58:09.300Z,1003.23
2017-10-21T04:58:49.846Z,1003.25
2017-10-21T04:59:30.346Z,1003.24
2017-10-21T05:00:10.981Z,1003.23
2017-10-21T05:00:51.478Z,1003.19
2017-10-21T05:01:32.042Z,1003.17
2017-10-21T05:02:12.617Z,1003.17
2017-10-21T05:02:53.130Z,1003.19
2017-10-21T05:03:33.685Z,1003.17
2017-10-21T05:04:14.198Z,1003.21
2017-10-21T05:04:54.677Z,1003.14
2017-10-21T05:05:35.232Z,1003.18
2017-10-21T05:06:15.779Z,1003.19
2017-10-21T05:06:56.288Z,1003.19
2017-10-21T05:07:36.854Z,1003.21
2017-10-21T05:08:17.406Z,1003.19
2017-10-21T05:08:57.904Z,1003.19
2017-10-21T05:09:38.433Z,1003.17
2017-10-21T05:10:18.989Z,1003.15
2017-10-21T05:10:59.525Z,1003.14
2017-10-21T05:11:40.110Z,1003.14
2017-10-21T05:12:20.626Z,1003.12
2017-10-21T05:13:01.193Z,1003.15
2017-10-21T05:13:41.742Z,1003.12
2017-10-21T05:14:22.254Z,1003.17
2017-10-21T05:15:02.813Z,1003.2
2017-10-21T05:15:43.349Z,1003.19
2017-10-21T05:16:23.864Z,1003.21
2017-10-21T05:17:04.451Z,1003.2
2017-10-21T05:17:44.975Z,1003.14
2017-10-21T05:18:25.556Z,1003.15
2017-10-21T05:19:06.111Z,1003.23
2017-10-21T05:19:46.663Z,1003.17
2017-10-21T05:20:28.900Z,1003.13
2017-10-21T05:21:09.426Z,1003.16
2017-10-21T05:21:49.958Z,1003.18
2017-10-21T05:22:30.511Z,1003.13
2017-10-21T05:23:11.082Z,1003.19
2017-10-21T05:23:51.605Z,1003.14
2017-10-21T05:24:32.188Z,1003.12
2017-10-21T05:25:12.699Z,1003.12
2017-10-21T05:25:53.235Z,1003.1
2017-10-21T05:26:33.764Z,1003.1
2017-10-21T05:27:14.304Z,1003.08
2017-10-21T05:27:54.840Z,1003.01
2017-10-21T05:28:35.372Z,1003.02
2017-10-21T05:29:15.922Z,1003.02
2017-10-21T05:29:56.450Z,1002.95
2017-10-21T05:30:37.027Z,1003.01
2017-10-21T05:31:17.565Z,1002.98
2017-10-21T05:31:58.121Z,1002.89
2017-10-21T05:32:38.619Z,1002.9
2017-10-21T05:33:19.121Z,1002.88
2017-10-21T05:33:59.671Z,1002.89
2017-10-21T05:34:40.200Z,1002.91
2017-10-21T05:35:20.709Z,1002.93
2017-10-21T05:36:01.280Z,1002.94
2017-10-21T05:36:41.773Z,1002.93
2017-10-21T05:37:22.337Z,1002.89
2017-10-21T05:38:02.845Z,1002.91
2017-10-21T05:38:43.451Z,1002.96
2017-10-21T05:39:23.944Z,1002.98
2017-10-21T05:40:04.500Z,1002.97
2017-10-21T05:40:45.056Z,1002.96
2017-10-21T05:41:25.571Z,1002.97
2017-10-21T05:42:06.102Z,1002.96
2017-10-21T05:42:46.665Z,1003.04
2017-10-21T05:43:27.177Z,1002.97
2017-10-21T05:44:07.683Z,1002.92
2017-10-21T05:44:48.229Z,1002.93
2017-10-21T05:45:28.781Z,1002.97
2017-10-21T05:46:09.340Z,1002.95
2017-10-21T05:46:49.829Z,1002.98
2017-10-21T05:47:30.410Z,1002.93
2017-10-21T05:48:10.935Z,1002.95
2017-10-21T05:48:51.505Z,1002.91
2017-10-21T05:49:32.015Z,1002.9
2017-10-21T05:50:12.570Z,1002.91
2017-10-21T05:50:53.108Z,1002.86
2017-10-21T05:51:33.655Z,1002.9
2017-10-21T05:52:14.181Z,1002.89
2017-10-21T05:52:54.699Z,1002.97
2017-10-21T05:53:35.227Z,1002.94
2017-10-21T05:54:16.019Z,1002.96
2017-10-21T05:54:56.497Z,1002.96
2017-10-21T05:55:37.100Z,1002.92
2017-10-21T05:56:17.618Z,1002.97
2017-10-21T05:56:58.147Z,1003
2017-10-21T05:57:38.711Z,1003.01
2017-10-21T05:58:19.267Z,1002.97
2017-10-21T05:58:59.757Z,1002.96
2017-10-21T05:59:40.330Z,1002.94
2017-10-21T06:00:20.793Z,1002.96
2017-10-21T06:01:01.335Z,1002.93
2017-10-21T06:01:41.847Z,1002.97
2017-10-21T06:02:22.513Z,1002.91
2017-10-21T06:03:03.097Z,1002.94
2017-10-21T06:03:43.595Z,1002.95
2017-10-21T06:04:24.083Z,1002.95
2017-10-21T06:05:04.616Z,1002.94
2017-10-21T06:05:45.197Z,1002.95
2017-10-21T06:06:25.753Z,1002.97
2017-10-21T06:07:06.253Z,1002.97
2017-10-21T06:07:46.819Z,1002.91
2017-10-21T06:08:27.453Z,1002.95
2017-10-21T06:09:07.998Z,1002.93
2017-10-21T06:09:48.469Z,1002.93
2017-10-21T06:10:28.982Z,1002.93
2017-10-21T06:11:09.574Z,1002.93
2017-10-21T06:11:50.060Z,1002.88
2017-10-21T06:12:30.604Z,1002.93
2017-10-21T06:13:11.159Z,1002.88
2017-10-21T06:13:51.677Z,1002.96
2017-10-21T06:14:32.209Z,1002.95
2017-10-21T06:15:12.691Z,1002.98
2017-10-21T06:15:53.293Z,1002.93
2017-10-21T06:16:33.920Z,1002.95
2017-10-21T06:17:14.392Z,1002.97
2017-10-21T06:17:54.967Z,1002.95
2017-10-21T06:18:35.478Z,1002.9
2017-10-21T06:19:16.001Z,1002.95
2017-10-21T06:19:56.580Z,1002.91
2017-10-21T06:20:37.123Z,1002.97
2017-10-21T06:21:17.645Z,1002.95
2017-10-21T06:21:58.258Z,1002.92
2017-10-21T06:22:38.755Z,1002.93
2017-10-21T06:23:19.312Z,1002.93
2017-10-21T06:23:59.882Z,1002.94
2017-10-21T06:24:40.398Z,1002.94
2017-10-21T06:25:20.915Z,1002.95
2017-10-21T06:26:01.430Z,1002.91
2017-10-21T06:26:42.030Z,1002.89
2017-10-21T06:27:22.578Z,1002.91
2017-10-21T06:28:03.078Z,1002.95
2017-10-21T06:28:43.704Z,1002.97
2017-10-21T06:29:24.267Z,1002.95
2017-10-21T06:30:04.783Z,1002.95
2017-10-21T06:30:45.346Z,1002.91
2017-10-21T06:31:25.878Z,1002.93
2017-10-21T06:32:06.387Z,1002.97
2017-10-21T06:32:46.906Z,1003
2017-10-21T06:33:27.448Z,1003.03
2017-10-21T06:34:08.000Z,1002.98
2017-10-21T06:34:48.509Z,1003.07
2017-10-21T06:35:29.093Z,1003.03
2017-10-21T06:36:09.616Z,1003.06
2017-10-21T06:36:50.161Z,1003.06
2017-10-21T06:37:30.694Z,1003.05
2017-10-21T06:38:11.232Z,1003.07
2017-10-21T06:38:51.822Z,1003.04
2017-10-21T06:39:32.408Z,1003.02
2017-10-21T06:40:12.961Z,1002.98
2017-10-21T06:40:53.471Z,1003.02
2017-10-21T06:41:34.021Z,1002.96
2017-10-21T06:42:14.589Z,1002.94
2017-10-21T06:42:55.109Z,1002.89
2017-10-21T06:43:35.650Z,1003.02
2017-10-21T06:44:16.242Z,1002.99
2017-10-21T06:44:56.761Z,1002.98
2017-10-21T06:45:37.324Z,1003
2017-10-21T06:46:17.883Z,1003.04
2017-10-21T06:46:58.454Z,1003.02
2017-10-21T06:47:38.974Z,1003.03
2017-10-21T06:48:19.512Z,1003.05
2017-10-21T06:49:00.025Z,1003
2017-10-21T06:49:40.595Z,1003.04
2017-10-21T06:50:21.122Z,1003.07
2017-10-21T06:51:01.630Z,1003.03
2017-10-21T06:51:42.217Z,1003.05
2017-10-21T06:52:22.737Z,1003.03
2017-10-21T06:53:03.242Z,1003
2017-10-21T06:53:43.770Z,1003
2017-10-21T06:54:24.317Z,1002.98
2017-10-21T06:55:04.859Z,1002.9
2017-10-21T06:55:45.445Z,1003
2017-10-21T06:56:25.945Z,1003.04
2017-10-21T06:57:06.469Z,1003.04
2017-10-21T06:57:47.070Z,1003.04
2017-10-21T06:58:27.619Z,1003.01
2017-10-21T06:59:08.141Z,1003.04
2017-10-21T06:59:48.660Z,1003.04
2017-10-21T07:00:29.240Z,1003.07
2017-10-21T07:01:09.795Z,1003.06
2017-10-21T07:01:50.329Z,1003.02
2017-10-21T07:02:30.908Z,1003.04
2017-10-21T07:03:11.411Z,1002.98
2017-10-21T07:03:51.969Z,1003
2017-10-21T07:04:32.525Z,1002.99
2017-10-21T07:05:13.002Z,1003.02
2017-10-21T07:05:53.560Z,1003.02
2017-10-21T07:06:34.163Z,1003.03
2017-10-21T07:07:14.637Z,1003.07
2017-10-21T07:07:55.186Z,1003.09
2017-10-21T07:08:35.740Z,1003.05
2017-10-21T07:09:16.302Z,1003.09
2017-10-21T07:09:56.790Z,1003.11
2017-10-21T07:10:37.383Z,1003.14
2017-10-21T07:11:17.899Z,1003.15
2017-10-21T07:11:58.464Z,1003.13
2017-10-21T07:12:38.965Z,1003.12
2017-10-21T07:13:19.472Z,1003.11
2017-10-21T07:14:00.014Z,1003.11
2017-10-21T07:14:40.571Z,1003.13
2017-10-21T07:15:21.063Z,1003.1
2017-10-21T07:16:01.591Z,1003.09
2017-10-21T07:16:42.162Z,1003.08
2017-10-21T07:17:22.713Z,1003.11
2017-10-21T07:18:03.311Z,1003.11
2017-10-21T07:18:43.885Z,1003.06
2017-10-21T07:19:24.442Z,1003.13
2017-10-21T07:20:05.084Z,1003.11
2017-10-21T07:20:45.600Z,1003.12
2017-10-21T07:21:26.134Z,1003.14
2017-10-21T07:22:06.681Z,1003.13
2017-10-21T07:22:47.312Z,1003.13
2017-10-21T07:23:27.790Z,1003.15
2017-10-21T07:24:08.383Z,1003.12
2017-10-21T07:24:48.996Z,1003.13
2017-10-21T07:25:29.716Z,1003.12
2017-10-21T07:26:10.272Z,1003.16
2017-10-21T07:26:50.809Z,1003.11
2017-10-21T07:27:31.327Z,1003.11
2017-10-21T07:28:11.851Z,1003.11
2017-10-21T07:28:52.358Z,1003.09
2017-10-21T07:29:32.946Z,1003.11
2017-10-21T07:30:13.475Z,1003.14
2017-10-21T07:30:53.964Z,1003.16
2017-10-21T07:31:34.488Z,1003.14
2017-10-21T07:32:15.007Z,1003.1
2017-10-21T07:32:55.584Z,1003.15
2017-10-21T07:33:36.104Z,1003.12
2017-10-21T07:34:16.649Z,1003.1
2017-10-21T07:34:57.237Z,1003.14
2017-10-21T07:35:37.767Z,1003.11
2017-10-21T07:36:18.297Z,1003.12
2017-10-21T07:36:58.855Z,1003.1
2017-10-21T07:37:39.372Z,1003.14
2017-10-21T07:38:19.974Z,1003.12
2017-10-21T07:39:00.470Z,1003.1
2017-10-21T07:39:41.014Z,1003.06
2017-10-21T07:40:21.562Z,1003.11
2017-10-21T07:41:02.104Z,1003.06
2017-10-21T07:41:42.783Z,1003.05
2017-10-21T07:42:23.346Z,1003.09
2017-10-21T07:43:04.040Z,1003.08
2017-10-21T07:43:44.590Z,1003.06
2017-10-21T07:44:25.211Z,1003.02
2017-10-21T07:45:05.699Z,1003.09
2017-10-21T07:45:46.296Z,1003.08
2017-10-21T07:46:26.792Z,1003.06
2017-10-21T07:47:07.320Z,1003.05
2017-10-21T07:47:47.923Z,1003.08
2017-10-21T07:48:28.459Z,1003.08
2017-10-21T07:49:09.000Z,1003.12
2017-10-21T07:49:49.554Z,1003.06
2017-10-21T07:50:30.129Z,1003.01
2017-10-21T07:51:10.640Z,1003.01
2017-10-21T07:51:51.191Z,1002.97
2017-10-21T07:52:31.804Z,1002.94
2017-10-21T07:53:12.313Z,1003.01
2017-10-21T07:53:52.844Z,1003
2017-10-21T07:54:33.405Z,1003.01
2017-10-21T07:55:13.912Z,1003
2017-10-21T07:55:54.432Z,1002.96
2017-10-21T07:56:35.017Z,1002.98
2017-10-21T07:57:15.576Z,1002.99
2017-10-21T07:57:56.049Z,1002.95
2017-10-21T07:58:36.582Z,1002.84
2017-10-21T07:59:17.167Z,1002.81
2017-10-21T07:59:57.682Z,1002.86
2017-10-21T08:00:38.354Z,1002.89
2017-10-21T08:01:18.935Z,1002.84
2017-10-21T08:01:59.529Z,1002.82
2017-10-21T08:02:40.198Z,1002.82
2017-10-21T08:03:20.759Z,1002.89
2017-10-21T08:04:01.352Z,1002.82
2017-10-21T08:04:41.927Z,1002.8
2017-10-21T08:05:22.502Z,1002.78
2017-10-21T08:06:02.947Z,1002.8
2017-10-21T08:06:43.552Z,1002.77
2017-10-21T08:07:24.066Z,1002.76
2017-10-21T08:08:04.590Z,1002.78
2017-10-21T08:08:45.174Z,1002.7
2017-10-21T08:09:25.699Z,1002.72
2017-10-21T08:10:06.277Z,1002.68
2017-10-21T08:10:46.825Z,1002.71
2017-10-21T08:11:27.375Z,1002.66
2017-10-21T08:12:07.880Z,1002.67